Time;durP1;ratioP1;P1;durP2;ratioP2;P2;SDS_P1;SDS_P2;PMS_P1;PMS_P2;Temp;Humidity;BMP_temperature;BMP_pressure;BME280_temperature;BME280_humidity;BME280_pressure;Samples;Min_cycle;Max_cycle;Signal;HPM_P1;HPM_P2
2021/04/07 00:00:52;;;;;;;;;;;;;;;-1.32;100.00;98004.94;4314455;81;20276;-87
2021/04/07 00:06:55;;;;;;;;;;;;;;;-1.24;100.00;98001.91;4296700;81;20253;-87
2021/04/07 00:12:57;;;;;;;;;;;;;;;-1.21;100.00;98005.50;4278341;81;20608;-87
2021/04/07 00:18:59;;;;;;;;;;;;;;;-1.22;100.00;98012.58;4281683;81;20356;-86
2021/04/07 00:25:01;;;;;;;;;;;;;;;-1.31;100.00;98009.22;4284636;81;20497;-85
2021/04/07 00:31:03;;;;;;;;;;;;;;;-1.26;100.00;98007.36;4250654;82;20478;-85
2021/04/07 00:37:05;;;;;;;;;;;;;;;-1.32;100.00;97999.67;4263053;82;20591;-85
2021/04/07 00:43:07;;;;;;;;;;;;;;;-1.41;100.00;98006.84;4312634;81;20176;-86
2021/04/07 00:49:08;;;;;;;;;;;;;;;-1.42;100.00;98020.20;4227426;82;20179;-84
2021/04/07 00:55:11;;;;;;;;;;;;;;;-1.45;100.00;98013.98;4304853;81;20259;-84
2021/04/07 01:01:13;;;;;;;;;;;;;;;-1.31;100.00;98017.13;4248753;82;20187;-85
2021/04/07 01:07:15;;;;;;;;;;;;;;;-1.42;100.00;98023.64;4307857;81;20528;-85
2021/04/07 01:13:17;;;;;;;;;;;;;;;-1.50;100.00;98030.33;4307317;81;20185;-85
2021/04/07 01:19:20;;;;;;;;;;;;;;;-1.52;100.00;98035.45;4297468;81;20477;-84
2021/04/07 01:25:22;;;;;;;;;;;;;;;-1.60;100.00;98041.10;4309356;81;20568;-86
2021/04/07 01:31:24;;;;;;;;;;;;;;;-1.67;100.00;98045.43;4311755;81;20472;-86
2021/04/07 01:37:26;;;;;;;;;;;;;;;-1.77;100.00;98044.85;4307883;81;20217;-86
2021/04/07 01:43:28;;;;;;;;;;;;;;;-1.69;100.00;98046.95;4256987;82;20283;-86
2021/04/07 01:49:31;;;;;;;;;;;;;;;-1.72;100.00;98053.90;4260053;83;20190;-86
2021/04/07 01:55:33;;;;;;;;;;;;;;;-1.76;100.00;98053.11;4268860;82;20574;-86
2021/04/07 02:01:37;;;;;;;;;;;;;;;-1.90;100.00;98057.31;4247952;82;20238;-86
2021/04/07 02:07:39;;;;;;;;;;;;;;;-1.86;100.00;98063.86;4248319;83;20207;-85
2021/04/07 02:13:41;;;;;;;;;;;;;;;-1.88;100.00;98067.17;4248916;82;21099;-84
2021/04/07 02:19:44;;;;;;;;;;;;;;;-1.87;100.00;98070.96;4249049;82;20353;-85
2021/04/07 02:25:45;;;;;;;;;;;;;;;-1.77;100.00;98060.66;4248430;82;20190;-84
2021/04/07 02:31:48;;;;;;;;;;;;;;;-1.93;100.00;98069.02;4287626;81;20484;-86
2021/04/07 02:37:50;;;;;;;;;;;;;;;-1.85;100.00;98059.74;4308535;81;20276;-85
2021/04/07 02:43:51;;;;;;;;;;;;;;;-1.96;100.00;98069.38;4322112;82;20476;-85
2021/04/07 02:49:53;;;;;;;;;;;;;;;-1.97;100.00;98067.22;4318733;81;20193;-86
2021/04/07 02:55:55;;;;;;;;;;;;;;;-2.08;100.00;98076.00;4308024;82;20231;-86
2021/04/07 03:01:57;;;;;;;;;;;;;;;-2.03;100.00;98077.16;4320510;81;20214;-85
2021/04/07 03:07:59;;;;;;;;;;;;;;;-2.19;100.00;98090.40;4321790;81;20201;-87
2021/04/07 03:14:02;;;;;;;;;;;;;;;-2.18;100.00;98099.94;4319657;82;20486;-86
2021/04/07 03:20:06;;;;;;;;;;;;;;;-2.12;100.00;98101.38;4299326;81;20216;-85
2021/04/07 03:26:08;;;;;;;;;;;;;;;-2.19;100.00;98103.56;4313857;81;20481;-85
2021/04/07 03:32:10;;;;;;;;;;;;;;;-2.27;100.00;98096.02;4271222;82;20266;-84
2021/04/07 03:38:13;;;;;;;;;;;;;;;-2.11;100.00;98099.06;4239292;81;20187;-85
2021/04/07 03:44:14;;;;;;;;;;;;;;;-1.82;100.00;98099.42;4285669;81;20236;-86
2021/04/07 03:50:16;;;;;;;;;;;;;;;-1.52;100.00;98096.09;4310533;81;20489;-84
2021/04/07 03:56:19;;;;;;;;;;;;;;;-1.49;100.00;98099.20;4319141;81;20214;-84
2021/04/07 04:02:21;;;;;;;;;;;;;;;-1.52;100.00;98107.95;4302341;82;20189;-85
2021/04/07 04:08:23;;;;;;;;;;;;;;;-1.62;100.00;98123.50;4309772;81;20205;-86
2021/04/07 04:14:25;;;;;;;;;;;;;;;-1.63;100.00;98125.81;4319135;81;20244;-84
2021/04/07 04:20:27;;;;;;;;;;;;;;;-1.41;100.00;98120.72;4319269;81;20307;-84
2021/04/07 04:26:30;;;;;;;;;;;;;;;-1.21;100.00;98132.91;4307833;81;20397;-86
2021/04/07 04:32:32;;;;;;;;;;;;;;;-1.00;100.00;98137.53;4309850;81;20359;-85
2021/04/07 04:38:34;;;;;;;;;;;;;;;-0.89;100.00;98146.02;4313315;81;20584;-86
2021/04/07 04:44:37;;;;;;;;;;;;;;;-0.83;100.00;98146.63;4316541;81;20185;-84
2021/04/07 04:50:39;;;;;;;;;;;;;;;-0.86;100.00;98153.08;4315948;81;20284;-86
2021/04/07 04:56:41;;;;;;;;;;;;;;;-0.61;100.00;98158.11;4298411;81;20221;-87
2021/04/07 05:02:43;;;;;;;;;;;;;;;-0.41;100.00;98164.70;4300209;81;20189;-86
2021/04/07 05:08:46;;;;;;;;;;;;;;;-0.07;100.00;98169.41;4314349;82;20303;-85
2021/04/07 05:14:50;;;;;;;;;;;;;;;0.02;100.00;98180.72;4322966;81;20185;-84
2021/04/07 05:20:53;;;;;;;;;;;;;;;0.22;100.00;98183.59;4321812;82;20601;-84
2021/04/07 05:26:55;;;;;;;;;;;;;;;0.54;100.00;98187.31;4321720;82;20540;-84
2021/04/07 05:32:57;;;;;;;;;;;;;;;0.74;100.00;98182.22;4312292;82;20230;-84
2021/04/07 05:38:58;;;;;;;;;;;;;;;0.96;100.00;98183.53;4268531;82;20187;-83
2021/04/07 05:45:00;;;;;;;;;;;;;;;1.17;100.00;98183.20;4267229;82;20262;-84
2021/04/07 05:51:03;;;;;;;;;;;;;;;1.33;100.00;98194.02;4269066;82;20476;-83
2021/04/07 05:57:06;;;;;;;;;;;;;;;1.62;100.00;98194.35;4300851;81;20489;-85
2021/04/07 06:03:08;;;;;;;;;;;;;;;1.64;100.00;98212.20;4322150;81;20191;-84
2021/04/07 06:09:11;;;;;;;;;;;;;;;1.74;100.00;98207.86;4262695;82;20195;-84
2021/04/07 06:15:13;;;;;;;;;;;;;;;1.68;100.00;98203.36;4308533;82;20230;-84
2021/04/07 06:21:16;;;;;;;;;;;;;;;1.66;100.00;98211.48;4322631;81;20248;-84
2021/04/07 06:27:18;;;;;;;;;;;;;;;1.82;100.00;98220.14;4325192;81;20218;-84
2021/04/07 06:33:28;;;;;;;;;;;;;;;2.01;100.00;98217.80;4245648;82;20305;-84
2021/04/07 06:39:30;;;;;;;;;;;;;;;2.65;100.00;98227.76;4394988;81;20178;-85
2021/04/07 06:45:34;;;;;;;;;;;;;;;2.67;100.00;98229.73;4386977;81;20284;-84
2021/04/07 06:51:36;;;;;;;;;;;;;;;2.96;100.00;98240.20;4332576;81;20295;-84
2021/04/07 06:57:37;;;;;;;;;;;;;;;3.16;100.00;98245.54;4336759;81;20267;-85
2021/04/07 07:03:39;;;;;;;;;;;;;;;3.12;100.00;98254.42;4223661;82;20183;-84
2021/04/07 07:09:54;;;;;;;;;;;;;;;3.31;100.00;98264.78;4232874;83;20254;-84
2021/04/07 07:15:56;;;;;;;;;;;;;;;3.33;100.00;98271.20;4275954;83;20304;-84
2021/04/07 07:22:02;;;;;;;;;;;;;;;3.43;100.00;98268.16;4236966;83;20282;-82
2021/04/07 07:28:05;;;;;;;;;;;;;;;3.48;100.00;98278.98;4257467;83;20229;-82
2021/04/07 07:34:10;;;;;;;;;;;;;;;3.49;100.00;98287.30;4249319;82;20323;-82
2021/04/07 07:40:18;;;;;;;;;;;;;;;3.61;100.00;98294.13;4261846;83;20188;-83
2021/04/07 07:46:27;;;;;;;;;;;;;;;3.89;100.00;98279.28;4215705;83;20206;-82
2021/04/07 07:52:31;;;;;;;;;;;;;;;4.37;100.00;98286.67;4250231;83;20483;-82
2021/04/07 07:58:32;;;;;;;;;;;;;;;4.58;100.00;98294.08;4260019;84;20183;-83
2021/04/07 08:04:38;;;;;;;;;;;;;;;4.25;100.00;98299.80;4255863;84;20231;-84
2021/04/07 08:10:40;;;;;;;;;;;;;;;3.94;100.00;98311.11;4288013;81;20193;-82
2021/04/07 08:16:44;;;;;;;;;;;;;;;4.41;100.00;98308.37;4310650;82;20325;-83
2021/04/07 08:22:46;;;;;;;;;;;;;;;4.14;100.00;98309.24;4313329;81;20390;-83
2021/04/07 08:28:49;;;;;;;;;;;;;;;4.01;100.00;98304.75;4335508;82;20568;-82
2021/04/07 08:34:51;;;;;;;;;;;;;;;4.64;100.00;98297.25;4335935;82;20355;-82
2021/04/07 08:40:53;;;;;;;;;;;;;;;5.12;100.00;98311.98;4314624;82;20520;-82
2021/04/07 08:47:03;;;;;;;;;;;;;;;5.64;100.00;98299.03;4299347;83;20276;-83
2021/04/07 08:53:12;;;;;;;;;;;;;;;5.73;100.00;98300.91;4264086;83;20206;-81
2021/04/07 08:59:18;;;;;;;;;;;;;;;5.53;96.21;98305.87;4262293;84;20321;-82
2021/04/07 09:05:32;;;;;;;;;;;;;;;5.56;90.05;98301.42;4289616;82;20226;-84
2021/04/07 09:11:36;;;;;;;;;;;;;;;5.60;78.21;98316.48;4309062;82;20548;-83
2021/04/07 09:17:47;;;;;;;;;;;;;;;5.71;79.78;98307.78;4306962;83;20189;-83
2021/04/07 09:24:01;;;;;;;;;;;;;;;5.88;76.82;98310.42;4302510;83;20201;-82
2021/04/07 09:30:04;;;;;;;;;;;;;;;5.43;83.83;98307.69;4249778;82;20360;-83
2021/04/07 09:36:09;;;;;;;;;;;;;;;5.77;89.44;98305.29;4297076;82;20225;-83
2021/04/07 09:42:12;;;;;;;;;;;;;;;5.79;85.66;98324.55;4305514;82;20240;-83
2021/04/07 09:48:13;;;;;;;;;;;;;;;5.75;85.09;98310.83;4292180;83;20581;-83
2021/04/07 09:54:22;;;;;;;;;;;;;;;6.49;80.76;98304.02;4277624;81;20293;-83
2021/04/07 10:00:30;;;;;;;;;;;;;;;5.94;67.47;98309.55;4302485;81;20237;-83
2021/04/07 10:06:33;;;;;;;;;;;;;;;5.41;75.79;98330.27;4306341;82;20225;-82
2021/04/07 10:12:35;;;;;;;;;;;;;;;5.21;73.14;98342.38;4294541;81;20569;-83
2021/04/07 10:18:38;;;;;;;;;;;;;;;4.46;76.21;98338.66;4279832;81;20197;-83
2021/04/07 10:24:42;;;;;;;;;;;;;;;4.50;80.06;98335.07;4297909;81;20190;-81
2021/04/07 10:30:45;;;;;;;;;;;;;;;5.00;90.53;98331.00;4262676;81;20233;-83
2021/04/07 10:36:49;;;;;;;;;;;;;;;5.39;99.87;98329.66;4296253;81;20303;-83
2021/04/07 10:42:51;;;;;;;;;;;;;;;5.96;94.36;98330.16;4300116;81;20553;-82
2021/04/07 10:48:58;;;;;;;;;;;;;;;6.44;78.00;98324.70;4296018;83;20489;-82
2021/04/07 10:55:02;;;;;;;;;;;;;;;6.35;67.47;98322.86;4299347;81;20281;-81
2021/04/07 11:01:05;;;;;;;;;;;;;;;6.17;68.60;98331.66;4291768;81;20304;-83
2021/04/07 11:07:12;;;;;;;;;;;;;;;4.25;100.00;98360.20;4301977;81;20204;-83
2021/04/07 11:13:19;;;;;;;;;;;;;;;4.25;100.00;98370.31;4300884;81;20383;-83
2021/04/07 11:19:21;;;;;;;;;;;;;;;5.27;100.00;98348.17;4287322;81;20398;-83
2021/04/07 11:25:23;;;;;;;;;;;;;;;6.01;100.00;98349.02;4283907;81;20224;-81
2021/04/07 11:31:29;;;;;;;;;;;;;;;5.50;100.00;98351.64;4278433;81;20245;-84
2021/04/07 11:50:10;;;;;;;;;;;;;;;4.23;100.00;98392.85;4289997;81;20430;-83
2021/04/07 11:56:12;;;;;;;;;;;;;;;4.57;100.00;98393.63;4287510;81;20239;-82
2021/04/07 12:02:13;;;;;;;;;;;;;;;4.48;100.00;98400.19;4285834;81;20207;-82
2021/04/07 12:08:16;;;;;;;;;;;;;;;5.30;100.00;98382.39;4288894;81;20605;-83
2021/04/07 12:14:17;;;;;;;;;;;;;;;5.57;100.00;98381.75;4308196;81;20283;-82
2021/04/07 12:20:20;;;;;;;;;;;;;;;5.96;100.00;98378.19;4318301;82;20277;-83
2021/04/07 12:26:22;;;;;;;;;;;;;;;6.32;100.00;98372.70;4316041;81;20304;-83
2021/04/07 12:32:26;;;;;;;;;;;;;;;6.30;100.00;98373.95;4329700;81;20548;-84
2021/04/07 12:38:31;;;;;;;;;;;;;;;6.67;100.00;98374.80;4327801;81;20212;-83
2021/04/07 12:44:32;;;;;;;;;;;;;;;7.02;100.00;98362.70;4339364;81;20456;-82
2021/04/07 12:50:34;;;;;;;;;;;;;;;7.34;100.00;98359.82;4317806;82;20285;-82
2021/04/07 12:56:36;;;;;;;;;;;;;;;7.27;100.00;98360.42;4318112;81;20631;-83
2021/04/07 13:02:38;;;;;;;;;;;;;;;6.74;100.00;98356.03;4310035;81;20191;-82
2021/04/07 13:08:47;;;;;;;;;;;;;;;5.63;100.00;98420.58;4313160;81;21105;-83
2021/04/07 13:14:49;;;;;;;;;;;;;;;3.66;100.00;98433.09;4320352;81;20272;-82
2021/04/07 13:20:57;;;;;;;;;;;;;;;4.85;100.00;98440.48;4289292;81;20397;-82
2021/04/07 13:26:56;;;;;;;;;;;;;;;4.22;100.00;98450.56;4317204;81;20240;-82
2021/04/07 13:33:11;;;;;;;;;;;;;;;4.95;100.00;98441.37;4316761;81;20244;-82
2021/04/07 13:39:37;;;;;;;;;;;;;;;4.57;100.00;98454.33;4330791;81;20451;-82
2021/04/07 13:45:30;;;;;;;;;;;;;;;5.38;100.00;98423.47;4331154;81;20486;-82
2021/04/07 13:51:33;;;;;;;;;;;;;;;5.18;100.00;98432.06;4316919;81;20197;-83
2021/04/07 13:57:35;;;;;;;;;;;;;;;5.05;100.00;98440.91;4323090;81;20197;-81
2021/04/07 14:03:38;;;;;;;;;;;;;;;5.14;100.00;98430.33;4326354;81;20193;-82
2021/04/07 14:09:42;;;;;;;;;;;;;;;5.29;99.76;98440.23;4324314;81;20280;-83
2021/04/07 14:15:44;;;;;;;;;;;;;;;5.32;97.81;98449.66;4298896;81;20189;-82
2021/04/07 14:21:46;;;;;;;;;;;;;;;5.77;94.92;98435.47;4281820;81;20682;-82
2021/04/07 14:27:49;;;;;;;;;;;;;;;5.70;97.03;98457.38;4288473;81;20327;-82
2021/04/07 14:33:52;;;;;;;;;;;;;;;6.06;98.51;98446.61;4285319;81;20507;-82
2021/04/07 14:39:53;;;;;;;;;;;;;;;5.52;93.77;98448.73;4238780;82;20467;-80
2021/04/07 14:45:56;;;;;;;;;;;;;;;5.56;90.31;98445.42;4309760;81;20277;-83
2021/04/07 14:52:12;;;;;;;;;;;;;;;5.52;91.56;98458.06;4300503;81;20282;-82
2021/04/07 14:58:08;;;;;;;;;;;;;;;5.54;95.69;98442.16;4299268;81;20246;-81
2021/04/07 15:04:11;;;;;;;;;;;;;;;6.10;91.70;98459.00;4304490;81;20454;-82
2021/04/07 15:10:25;;;;;;;;;;;;;;;6.20;95.13;98467.35;4294831;81;20204;-84
2021/04/07 15:16:28;;;;;;;;;;;;;;;6.32;99.68;98466.14;4225884;82;20191;-84
2021/04/07 15:22:33;;;;;;;;;;;;;;;6.42;100.00;98474.98;4237721;82;20281;-82
2021/04/07 15:28:35;;;;;;;;;;;;;;;6.24;100.00;98475.75;4242506;82;20290;-83
2021/04/07 15:34:39;;;;;;;;;;;;;;;6.29;100.00;98475.90;4309517;81;20464;-83
2021/04/07 15:40:41;;;;;;;;;;;;;;;6.44;100.00;98480.12;4307625;81;20191;-83
2021/04/07 15:46:43;;;;;;;;;;;;;;;6.52;100.00;98484.66;4227055;82;20373;-83
2021/04/07 15:52:47;;;;;;;;;;;;;;;6.46;100.00;98492.23;4303199;81;20188;-83
2021/04/07 15:58:51;;;;;;;;;;;;;;;6.92;100.00;98499.51;4307421;81;20189;-83
2021/04/07 16:04:54;;;;;;;;;;;;;;;6.69;100.00;98496.14;4307683;81;20286;-83
2021/04/07 16:10:57;;;;;;;;;;;;;;;6.58;100.00;98496.33;4239403;82;20262;-81
2021/04/07 16:17:02;;;;;;;;;;;;;;;6.50;100.00;98504.60;4251761;84;20202;-82
2021/04/07 16:23:05;;;;;;;;;;;;;;;6.10;100.00;98507.87;4250114;82;20410;-83
2021/04/07 16:29:07;;;;;;;;;;;;;;;5.81;100.00;98502.05;4251775;82;20297;-79
2021/04/07 16:35:13;;;;;;;;;;;;;;;5.80;100.00;98502.25;4247635;82;20255;-81
2021/04/07 16:41:15;;;;;;;;;;;;;;;5.44;100.00;98498.63;4264641;82;20187;-81
2021/04/07 16:47:19;;;;;;;;;;;;;;;5.31;100.00;98502.67;4255446;82;20199;-83
2021/04/07 16:53:21;;;;;;;;;;;;;;;5.25;100.00;98502.97;4255308;82;20286;-82
2021/04/07 16:59:24;;;;;;;;;;;;;;;5.05;100.00;98503.53;4250210;82;20283;-82
2021/04/07 17:05:26;;;;;;;;;;;;;;;4.74;100.00;98516.00;4247549;83;20269;-83
2021/04/07 17:11:28;;;;;;;;;;;;;;;4.55;100.00;98518.95;4264534;81;20233;-82
2021/04/07 17:17:32;;;;;;;;;;;;;;;4.35;100.00;98532.76;4294716;81;20607;-82
2021/04/07 17:23:34;;;;;;;;;;;;;;;4.39;100.00;98540.14;4296278;81;20294;-82
2021/04/07 17:29:38;;;;;;;;;;;;;;;4.24;100.00;98548.83;4298665;81;20345;-81
2021/04/07 17:35:42;;;;;;;;;;;;;;;4.21;100.00;98566.50;4303220;81;20718;-84
2021/04/07 17:41:51;;;;;;;;;;;;;;;4.42;100.00;98594.81;4301578;81;20509;-85
2021/04/07 17:47:53;;;;;;;;;;;;;;;3.72;100.00;98611.77;4289183;81;20195;-82
2021/04/07 17:53:55;;;;;;;;;;;;;;;3.31;100.00;98582.80;4291956;81;20216;-82
2021/04/07 17:59:57;;;;;;;;;;;;;;;3.49;100.00;98601.73;4301294;81;20271;-87
2021/04/07 18:06:04;;;;;;;;;;;;;;;3.60;100.00;98614.99;4290197;81;20373;-82
2021/04/07 18:12:11;;;;;;;;;;;;;;;3.46;100.00;98623.39;4289688;81;20287;-83
2021/04/07 18:18:17;;;;;;;;;;;;;;;3.38;100.00;98644.80;4330700;81;20193;-89
2021/04/07 18:31:33;;;;;;;;;;;;;;;2.86;100.00;98641.02;4295193;81;20456;-88
2021/04/07 18:37:35;;;;;;;;;;;;;;;2.72;100.00;98650.69;4314932;81;20233;-89
2021/04/07 18:43:40;;;;;;;;;;;;;;;2.67;100.00;98661.56;4322887;81;20234;-89
2021/04/07 18:56:56;;;;;;;;;;;;;;;2.66;100.00;98672.70;4212082;83;20221;-84
2021/04/07 19:02:58;;;;;;;;;;;;;;;2.90;100.00;98686.09;4143251;85;20202;-82
2021/04/07 19:09:00;;;;;;;;;;;;;;;2.79;100.00;98707.83;4136603;85;20332;-83
2021/04/07 19:15:04;;;;;;;;;;;;;;;2.42;100.00;98718.45;4135290;85;20300;-85
2021/04/07 19:21:08;;;;;;;;;;;;;;;2.48;100.00;98713.75;4135807;85;20273;-85
2021/04/07 19:27:10;;;;;;;;;;;;;;;2.21;100.00;98723.22;4143459;85;20190;-84
2021/04/07 19:33:13;;;;;;;;;;;;;;;2.12;100.00;98741.03;4205143;83;21062;-85
2021/04/07 19:39:15;;;;;;;;;;;;;;;2.14;100.00;98752.80;4232954;83;20272;-85
2021/04/07 19:45:18;;;;;;;;;;;;;;;2.23;100.00;98757.81;4227796;83;20486;-86
2021/04/07 19:51:20;;;;;;;;;;;;;;;2.22;100.00;98736.80;4220079;83;20549;-83
2021/04/07 19:57:30;;;;;;;;;;;;;;;2.20;100.00;98754.73;4206929;83;20209;-82
2021/04/07 20:03:33;;;;;;;;;;;;;;;2.14;100.00;98746.17;4168592;83;20322;-84
2021/04/07 20:09:34;;;;;;;;;;;;;;;1.88;100.00;98744.80;4205825;83;20430;-83
2021/04/07 20:15:36;;;;;;;;;;;;;;;1.71;100.00;98756.88;4210851;82;20190;-82
2021/04/07 20:21:39;;;;;;;;;;;;;;;1.70;100.00;98757.05;4226129;83;20194;-84
2021/04/07 20:27:41;;;;;;;;;;;;;;;1.69;100.00;98758.06;4197374;83;20298;-85
2021/04/07 20:33:43;;;;;;;;;;;;;;;1.87;100.00;98763.02;4199623;83;20394;-85
2021/04/07 20:39:46;;;;;;;;;;;;;;;1.98;100.00;98749.83;4136030;83;20209;-82
2021/04/07 20:45:48;;;;;;;;;;;;;;;2.09;100.00;98754.67;4077649;86;20265;-83
2021/04/07 20:51:50;;;;;;;;;;;;;;;2.21;100.00;98771.77;4089271;86;20280;-84
2021/04/07 20:57:52;;;;;;;;;;;;;;;2.14;100.00;98765.57;4083860;86;20230;-84
2021/04/07 21:03:57;;;;;;;;;;;;;;;2.00;100.00;98780.47;4087344;86;20183;-82
2021/04/07 21:10:01;;;;;;;;;;;;;;;1.89;100.00;98782.24;4081813;86;20376;-82
2021/04/07 21:16:03;;;;;;;;;;;;;;;1.95;100.00;98781.01;4070730;86;20228;-83
2021/04/07 21:22:05;;;;;;;;;;;;;;;1.73;100.00;98777.92;4038431;86;20236;-81
2021/04/07 21:28:07;;;;;;;;;;;;;;;1.67;100.00;98782.11;4064701;86;20265;-81
2021/04/07 21:34:10;;;;;;;;;;;;;;;1.52;100.00;98786.86;4081619;86;20187;-81
2021/04/07 21:40:13;;;;;;;;;;;;;;;1.70;100.00;98784.40;4086209;86;20210;-81
2021/04/07 21:46:16;;;;;;;;;;;;;;;1.62;100.00;98789.28;4092101;86;20207;-82
2021/04/07 21:52:20;;;;;;;;;;;;;;;1.65;100.00;98792.05;4154097;82;20180;-82
2021/04/07 21:58:23;;;;;;;;;;;;;;;1.83;100.00;98783.79;4157469;84;20257;-81
2021/04/07 22:04:25;;;;;;;;;;;;;;;1.83;100.00;98785.60;4064986;87;20562;-81
2021/04/07 22:10:29;;;;;;;;;;;;;;;1.91;100.00;98785.53;4176139;84;20182;-81
2021/04/07 22:16:32;;;;;;;;;;;;;;;1.83;100.00;98781.63;4149719;84;20335;-82
2021/04/07 22:22:41;;;;;;;;;;;;;;;1.66;100.00;98783.92;4126625;85;20257;-83
2021/04/07 22:28:44;;;;;;;;;;;;;;;1.69;100.00;98784.56;4126543;85;20312;-82
2021/04/07 22:34:46;;;;;;;;;;;;;;;1.59;100.00;98785.64;4122134;86;20209;-83
2021/04/07 22:40:50;;;;;;;;;;;;;;;1.38;100.00;98785.80;4121880;85;20194;-81
2021/04/07 22:46:52;;;;;;;;;;;;;;;1.32;100.00;98793.16;4081615;85;20221;-81
2021/04/07 22:52:54;;;;;;;;;;;;;;;1.18;100.00;98788.61;4113645;85;20211;-81
2021/04/07 22:58:57;;;;;;;;;;;;;;;1.06;100.00;98787.69;4113709;85;20344;-82
2021/04/07 23:05:00;;;;;;;;;;;;;;;1.02;100.00;98788.22;4131130;85;20177;-81
2021/04/07 23:11:03;;;;;;;;;;;;;;;0.86;100.00;98788.66;4178389;84;20257;-81
2021/04/07 23:17:05;;;;;;;;;;;;;;;0.86;100.00;98791.30;4086460;86;20221;-83
2021/04/07 23:23:07;;;;;;;;;;;;;;;0.70;100.00;98789.56;4171945;84;20247;-81
2021/04/07 23:29:09;;;;;;;;;;;;;;;0.60;100.00;98791.08;4122895;85;20266;-82
2021/04/07 23:35:12;;;;;;;;;;;;;;;0.50;100.00;98786.02;4130222;85;20582;-82
2021/04/07 23:41:15;;;;;;;;;;;;;;;0.46;100.00;98778.59;4149031;85;20481;-82
2021/04/07 23:47:17;;;;;;;;;;;;;;;0.26;100.00;98779.83;4123487;85;20512;-83
2021/04/07 23:53:19;;;;;;;;;;;;;;;0.25;100.00;98779.48;4114313;85;20207;-83
2021/04/07 23:59:21;;;;;;;;;;;;;;;0.35;100.00;98782.42;4084236;87;20251;-83
